Carnival Freedom — 3EBL5 — position and weather

sailwx.info

Track history (hours):
 
Tides and Currents Weather Stations Pressure Air Temp Water Temp Dewpoint Dewpoint Depression Visibility Wind Speed Wind Dir Waves Ship Positions

Carnival Freedom

Last reported at 2019-Apr-24 09:00 UTC. Time now 2019-Apr-25 10:25 UTC.
Position N 16°30' W 086°42'.

Type: Passenger vessel. MMSI: 371154000.

Wind from 120 at 23 knots

Barometer 1009.9 mb
Air temperature 27.0 ° C
Visibility: greater than 10.8 NM
Dewpoint 17.6 ° C
Water temperature 23.0 ° C

Date/timePositionNaut miles runAvg speedWind from/ knotsBaromVisibWave heightAir tempDewpointWater temp
2019-Apr-24 09:00N 16°30' W 086°42'228 7.0 120 / 231009.910.8 27.017.623.0
2019-Apr-23 00:17N 20°17' W 087°05'415.6
2019-Apr-23 00:00N 20°21' W 087°05'714.5
2019-Apr-22 23:31N 20°28' W 087°01'2 4.8
2019-Apr-22 23:01N 20°29' W 086°59'0 0.0
2019-Apr-22 22:30N 20°29' W 086°59'0 0.0
2019-Apr-22 22:00N 20°29' W 086°59'0 0.0
2019-Apr-22 21:31N 20°29' W 086°59'0 0.0
2019-Apr-22 21:00N 20°29' W 086°59'0 0.0
2019-Apr-22 20:30N 20°29' W 086°59'0 0.0
2019-Apr-22 20:00N 20°29' W 086°59'0 0.0
2019-Apr-22 19:30N 20°29' W 086°59'0 0.0
2019-Apr-22 19:01N 20°29' W 086°59'0 0.0
2019-Apr-22 18:31N 20°29' W 086°59'0 0.0
2019-Apr-22 18:00N 20°29' W 086°59'0 0.0
2019-Apr-22 17:30N 20°29' W 086°59'0 0.0
2019-Apr-22 17:00N 20°29' W 086°59'0 0.0
2019-Apr-22 16:30N 20°29' W 086°59'0 0.0
2019-Apr-22 16:01N 20°29' W 086°59'0 0.0
2019-Apr-22 15:30N 20°29' W 086°59'0 0.0
2019-Apr-22 15:00N 20°29' W 086°59'0 0.0
2019-Apr-22 14:30N 20°29' W 086°59'0 0.0
2019-Apr-22 14:00N 20°29' W 086°59'1 1.3
2019-Apr-22 13:31N 20°29' W 086°59'611.1
2019-Apr-22 13:00N 20°35' W 086°58'816.0
2019-Apr-22 12:30N 20°42' W 086°53'2416.1
2019-Apr-22 11:00N 21°00' W 086°36'40617.8 110 / 71015.927.0 24.0 9.423.0
2019-Apr-21 12:11N 26°28' W 090°57'518.7
2019-Apr-21 11:56N 26°31' W 091°00'1920.2
2019-Apr-21 11:00N 26°42' W 091°18'7918.7 160 / 141017.027.0 20.0-10.722.0
2019-Apr-21 06:47N 27°39' W 092°19'1019.0
2019-Apr-21 06:16N 27°45' W 092°27'7618.5
2019-Apr-21 02:10N 28°36' W 093°31'1618.4
2019-Apr-21 01:18N 28°46' W 093°46'5517.4
2019-Apr-20 22:07N 29°18' W 094°37'210.5
2019-Apr-20 21:58N 29°19' W 094°39'613.1
2019-Apr-20 21:30N 29°21' W 094°45'3 5.3
2019-Apr-20 20:57N 29°19' W 094°48'0 0.0
2019-Apr-20 20:30N 29°19' W 094°48'0 0.0
2019-Apr-20 20:00N 29°19' W 094°48'0 0.0
2019-Apr-20 19:30N 29°19' W 094°48'0 0.0
2019-Apr-20 19:00N 29°19' W 094°48'0 0.0
2019-Apr-20 18:30N 29°19' W 094°48'0 0.0
2019-Apr-20 18:00N 29°19' W 094°48'0 0.0
2019-Apr-20 17:30N 29°19' W 094°48'0 0.0
2019-Apr-20 17:00N 29°19' W 094°48'0 0.0
2019-Apr-20 16:30N 29°19' W 094°48'0 0.0
2019-Apr-20 16:00N 29°19' W 094°48'0 0.0
2019-Apr-20 15:30N 29°19' W 094°48'0 0.0
2019-Apr-20 15:00N 29°19' W 094°48'0 0.0
2019-Apr-20 14:30N 29°19' W 094°48'0 0.0
2019-Apr-20 14:00N 29°19' W 094°48'0 0.0
2019-Apr-20 13:30N 29°19' W 094°48'0 0.0
2019-Apr-20 13:00N 29°19' W 094°48'0 0.1
2019-Apr-20 12:30N 29°19' W 094°48'1 2.0
2019-Apr-20 12:01N 29°19' W 094°47'510.1
2019-Apr-20 11:30N 29°20' W 094°41'714.2
2019-Apr-20 11:00N 29°17' W 094°34'713.1
2019-Apr-20 10:30N 29°13' W 094°28'712.9
2019-Apr-20 09:58N 29°09' W 094°22'26317.6
2019-Apr-19 19:00N 26°54' W 090°06'11816.8 360 / 381011.910.8 24.0-4.318.0
2019-Apr-19 12:00N 26°06' W 088°06'8914.8 340 / 351007.027.0 23.0 7.922.0
2019-Apr-19 06:00N 25°30' W 086°36'12918.4 180 / 201006.910.8 26.019.925.0
2019-Apr-18 23:00N 24°42' W 084°24'16020.0 130 / 131009.910.8 26.019.926.0
2019-Apr-18 15:00N 24°18' W 081°30'8517.1 150 / 251012.910.8 26.018.225.0
2019-Apr-18 10:00N 24°42' W 080°00'6318.5 130 / 131014.027.0 26.018.225.0
2019-Apr-18 06:36N 25°37' W 079°27'218.3
2019-Apr-18 06:30N 25°39' W 079°27'1218.5
2019-Apr-18 05:52N 25°50' W 079°23'24 0.6
2019-Apr-16 10:02N 26°14' W 079°17'118.8
2019-Apr-16 09:58N 26°13' W 079°18'918.7
2019-Apr-16 09:30N 26°08' W 079°26'1020.3
2019-Apr-16 09:00N 25°59' W 079°31'1020.7
2019-Apr-16 08:30N 25°50' W 079°36'1020.6
2019-Apr-16 08:00N 25°40' W 079°39'1020.6
2019-Apr-16 07:30N 25°30' W 079°42'1020.6
2019-Apr-16 07:00N 25°20' W 079°45'9418.7
2019-Apr-16 01:59N 24°20' W 081°05'27010.7
2019-Apr-15 00:44N 25°18' W 085°55'1718.2
2019-Apr-14 23:50N 25°25' W 086°12'1818.2
2019-Apr-14 22:51N 25°32' W 086°30'25720.0
2019-Apr-14 10:00N 27°12' W 090°54'   300 / 211006.9 5.4 23.016.523.0
Track history (hours):
 
Tides and Currents Weather Stations Pressure Air Temp Water Temp Dewpoint Dewpoint Depression Visibility Wind Speed Wind Dir Waves Ship Positions

Carnival Freedom

Last reported at 2019-Apr-24 09:00 UTC. Time now 2019-Apr-25 10:25 UTC.
Position N 16°30' W 086°42'.

Type: Passenger vessel. MMSI: 371154000.

Wind from 120 at 23 knots

Barometer 1009.9 mb
Air temperature 27.0 ° C
Visibility: greater than 10.8 NM
Dewpoint 17.6 ° C
Water temperature 23.0 ° C

Date/timePositionNaut miles runAvg speedWind from/ knotsBaromVisibWave heightAir tempDewpointWater temp
2019-Apr-24 09:00N 16°30' W 086°42'228 7.0 120 / 231009.910.8 27.017.623.0
2019-Apr-23 00:17N 20°17' W 087°05'415.6
2019-Apr-23 00:00N 20°21' W 087°05'714.5
2019-Apr-22 23:31N 20°28' W 087°01'2 4.8
2019-Apr-22 23:01N 20°29' W 086°59'0 0.0
2019-Apr-22 22:30N 20°29' W 086°59'0 0.0
2019-Apr-22 22:00N 20°29' W 086°59'0 0.0
2019-Apr-22 21:31N 20°29' W 086°59'0 0.0
2019-Apr-22 21:00N 20°29' W 086°59'0 0.0
2019-Apr-22 20:30N 20°29' W 086°59'0 0.0
2019-Apr-22 20:00N 20°29' W 086°59'0 0.0
2019-Apr-22 19:30N 20°29' W 086°59'0 0.0
2019-Apr-22 19:01N 20°29' W 086°59'0 0.0
2019-Apr-22 18:31N 20°29' W 086°59'0 0.0
2019-Apr-22 18:00N 20°29' W 086°59'0 0.0
2019-Apr-22 17:30N 20°29' W 086°59'0 0.0
2019-Apr-22 17:00N 20°29' W 086°59'0 0.0
2019-Apr-22 16:30N 20°29' W 086°59'0 0.0
2019-Apr-22 16:01N 20°29' W 086°59'0 0.0
2019-Apr-22 15:30N 20°29' W 086°59'0 0.0
2019-Apr-22 15:00N 20°29' W 086°59'0 0.0
2019-Apr-22 14:30N 20°29' W 086°59'0 0.0
2019-Apr-22 14:00N 20°29' W 086°59'1 1.3
2019-Apr-22 13:31N 20°29' W 086°59'611.1
2019-Apr-22 13:00N 20°35' W 086°58'816.0
2019-Apr-22 12:30N 20°42' W 086°53'2416.1
2019-Apr-22 11:00N 21°00' W 086°36'40617.8 110 / 71015.927.0 24.0 9.423.0
2019-Apr-21 12:11N 26°28' W 090°57'518.7
2019-Apr-21 11:56N 26°31' W 091°00'1920.2
2019-Apr-21 11:00N 26°42' W 091°18'7918.7 160 / 141017.027.0 20.0-10.722.0
2019-Apr-21 06:47N 27°39' W 092°19'1019.0
2019-Apr-21 06:16N 27°45' W 092°27'7618.5
2019-Apr-21 02:10N 28°36' W 093°31'1618.4
2019-Apr-21 01:18N 28°46' W 093°46'5517.4
2019-Apr-20 22:07N 29°18' W 094°37'210.5
2019-Apr-20 21:58N 29°19' W 094°39'613.1
2019-Apr-20 21:30N 29°21' W 094°45'3 5.3
2019-Apr-20 20:57N 29°19' W 094°48'0 0.0
2019-Apr-20 20:30N 29°19' W 094°48'0 0.0
2019-Apr-20 20:00N 29°19' W 094°48'0 0.0
2019-Apr-20 19:30N 29°19' W 094°48'0 0.0
2019-Apr-20 19:00N 29°19' W 094°48'0 0.0
2019-Apr-20 18:30N 29°19' W 094°48'0 0.0
2019-Apr-20 18:00N 29°19' W 094°48'0 0.0
2019-Apr-20 17:30N 29°19' W 094°48'0 0.0
2019-Apr-20 17:00N 29°19' W 094°48'0 0.0
2019-Apr-20 16:30N 29°19' W 094°48'0 0.0
2019-Apr-20 16:00N 29°19' W 094°48'0 0.0
2019-Apr-20 15:30N 29°19' W 094°48'0 0.0
2019-Apr-20 15:00N 29°19' W 094°48'0 0.0
2019-Apr-20 14:30N 29°19' W 094°48'0 0.0
2019-Apr-20 14:00N 29°19' W 094°48'0 0.0
2019-Apr-20 13:30N 29°19' W 094°48'0 0.0
2019-Apr-20 13:00N 29°19' W 094°48'0 0.1
2019-Apr-20 12:30N 29°19' W 094°48'1 2.0
2019-Apr-20 12:01N 29°19' W 094°47'510.1
2019-Apr-20 11:30N 29°20' W 094°41'714.2
2019-Apr-20 11:00N 29°17' W 094°34'713.1
2019-Apr-20 10:30N 29°13' W 094°28'712.9
2019-Apr-20 09:58N 29°09' W 094°22'26317.6
2019-Apr-19 19:00N 26°54' W 090°06'11816.8 360 / 381011.910.8 24.0-4.318.0
2019-Apr-19 12:00N 26°06' W 088°06'8914.8 340 / 351007.027.0 23.0 7.922.0
2019-Apr-19 06:00N 25°30' W 086°36'12918.4 180 / 201006.910.8 26.019.925.0
2019-Apr-18 23:00N 24°42' W 084°24'16020.0 130 / 131009.910.8 26.019.926.0
2019-Apr-18 15:00N 24°18' W 081°30'8517.1 150 / 251012.910.8 26.018.225.0
2019-Apr-18 10:00N 24°42' W 080°00'6318.5 130 / 131014.027.0 26.018.225.0
2019-Apr-18 06:36N 25°37' W 079°27'218.3
2019-Apr-18 06:30N 25°39' W 079°27'1218.5
2019-Apr-18 05:52N 25°50' W 079°23'24 0.6
2019-Apr-16 10:02N 26°14' W 079°17'118.8
2019-Apr-16 09:58N 26°13' W 079°18'918.7
2019-Apr-16 09:30N 26°08' W 079°26'1020.3
2019-Apr-16 09:00N 25°59' W 079°31'1020.7
2019-Apr-16 08:30N 25°50' W 079°36'1020.6
2019-Apr-16 08:00N 25°40' W 079°39'1020.6
2019-Apr-16 07:30N 25°30' W 079°42'1020.6
2019-Apr-16 07:00N 25°20' W 079°45'9418.7
2019-Apr-16 01:59N 24°20' W 081°05'27010.7
2019-Apr-15 00:44N 25°18' W 085°55'1718.2
2019-Apr-14 23:50N 25°25' W 086°12'1818.2
2019-Apr-14 22:51N 25°32' W 086°30'25720.0
2019-Apr-14 10:00N 27°12' W 090°54'   300 / 211006.9 5.4 23.016.523.0

Dump ship's entire track history